Astoria, OR

12:31 AM PDT on July 29, 2016 (GMT -0700)
N7BAG | | Change Station

Elev 338 ft 46.18 °N, 123.82 °W | Updated 20 seconds ago

Overcast
Overcast
57.9 °F
Feels Like 57.9 °F
N
2.7
Wind Variable Wind from ESE
Gusts 2.7 mph

Today
High -- | Low -- °F
--% Chance of Precip.
Yesterday
High -- | Low -- °F
Precip. -- in
Pressure 30.05 in
Visibility 10.0 miles
Clouds Overcast 500 ft
Dew Point 55 °F
Humidity 89%
Rainfall 0.00 in
Snow Depth Not available.
5:54 AM 8:48 PM
Waning Crescent, 24% visible
METAR KAST 290655Z AUTO 28005KT 10SM OVC005 16/14 A3005 RMK AO2 VIS 2 1/2 RWY 08 SLP176 T01610139
Pressure 30.05 in
Visibility 10.0 miles
Clouds Overcast 500 ft
Dew Point 55 °F
Humidity 89%
Rainfall 0.00 in
Snow Depth Not available.
5:54 AM 8:48 PM
Waning Crescent, 24% visible
METAR KAST 290655Z AUTO 28005KT 10SM OVC005 16/14 A3005 RMK AO2 VIS 2 1/2 RWY 08 SLP176 T01610139

10-Day Weather Forecast

Almanac

Astronomy

Jul. 29, 2016 Rise Set
Actual Time
Civil Twilight
Nautical Twilight
Astronomical Twilight
Moon
Length of Visible Light
Length of Day
Tomorrow will be .
, % of the Moon is Illuminated

Today's Extremes

State Highs State Lows

Community

WunderPhotos

Upload Photos

1,928,302 photos uploaded!

WunderBlog® & News

Nearby

Air Quality

  Air Quality AQ Index Pollutant
Not available.

Snow Depth

Station Depth Elevation

Earthquake Activity

City Distance Mag. Time & Date
Minimum magnitude displayed is 2.5.

Coastal Water Temperatures

Place Temperature

Stations

Nearby Weather Stations

Station Location Temp. Windchill Dew Point Humidity Wind Precip. Elev Updated Type
                   

Watches & Warnings

There are currently no watches in effect.